createdAt,value
2018-11-01T00:00:04.170Z,6.8
2018-11-01T00:05:06.550Z,6.8
2018-11-01T00:10:09.040Z,6.9
2018-11-01T00:15:11.403Z,6.8
2018-11-01T00:20:13.864Z,6.8
2018-11-01T00:25:16.297Z,6.6
2018-11-01T00:30:18.733Z,6.4
2018-11-01T00:35:21.180Z,6.3
2018-11-01T00:40:23.703Z,6.2
2018-11-01T00:45:26.051Z,6.1
2018-11-01T00:50:28.496Z,6
2018-11-01T00:55:30.955Z,5.8
2018-11-01T01:00:33.389Z,5.8
2018-11-01T01:05:35.830Z,5.7
2018-11-01T01:10:38.279Z,5.6
2018-11-01T01:15:40.724Z,5.5
2018-11-01T01:20:43.174Z,5.5
2018-11-01T01:25:45.716Z,5.5
2018-11-01T01:30:48.062Z,5.5
2018-11-01T01:35:50.511Z,5.4
2018-11-01T01:40:52.965Z,5.4
2018-11-01T01:45:55.400Z,5.4
2018-11-01T01:50:57.857Z,5.4
2018-11-01T01:56:00.296Z,5.4
2018-11-01T02:01:02.750Z,5.4
2018-11-01T02:06:05.191Z,5.4
2018-11-01T02:11:07.655Z,5.3
2018-11-01T02:16:10.061Z,5.3
2018-11-01T02:21:12.529Z,5.2
2018-11-01T02:26:14.959Z,5.1
2018-11-01T02:31:17.408Z,5.1
2018-11-01T02:36:19.850Z,5.3
2018-11-01T02:41:22.370Z,5.3
2018-11-01T02:46:24.733Z,5.3
2018-11-01T02:51:27.189Z,5.2
2018-11-01T03:01:32.112Z,5.1
2018-11-01T03:26:44.380Z,4.9
2018-11-01T03:31:46.832Z,5.1
2018-11-01T03:36:49.168Z,5.4
2018-11-01T03:41:51.592Z,5.6
2018-11-01T03:46:54.272Z,5.7
2018-11-01T03:51:56.681Z,5.6
2018-11-01T03:56:58.928Z,5.4
2018-11-01T04:02:01.396Z,5.3
2018-11-01T04:07:03.872Z,5.4
2018-11-01T04:12:06.285Z,5.3
2018-11-01T04:17:08.913Z,5.2
2018-11-01T04:22:11.239Z,5.2
2018-11-01T04:27:13.632Z,5.2
2018-11-01T04:32:16.097Z,5.3
2018-11-01T04:37:18.586Z,5.5
2018-11-01T04:42:20.973Z,5.6
2018-11-01T04:47:23.501Z,5.7
2018-11-01T04:52:25.841Z,5.8
2018-11-01T04:57:28.277Z,5.8
2018-11-01T05:02:30.743Z,5.7
2018-11-01T05:07:33.182Z,5.6
2018-11-01T05:12:35.687Z,5.4
2018-11-01T05:17:38.084Z,5.4
2018-11-01T05:22:40.609Z,5.5
2018-11-01T05:27:43.059Z,5.6
2018-11-01T05:32:45.431Z,5.5
2018-11-01T05:37:47.930Z,5.4
2018-11-01T05:42:50.373Z,5.4
2018-11-01T05:47:52.824Z,5.5
2018-11-01T05:52:55.179Z,5.6
2018-11-01T05:57:57.635Z,5.6
2018-11-01T06:03:00.109Z,5.6
2018-11-01T06:08:02.542Z,5.6
2018-11-01T06:13:04.967Z,5.7
2018-11-01T06:18:07.462Z,5.6
2018-11-01T06:23:09.870Z,5.5
2018-11-01T06:28:12.307Z,5.5
2018-11-01T06:33:14.759Z,5.6
2018-11-01T06:38:17.223Z,5.7
2018-11-01T06:43:19.641Z,5.8
2018-11-01T06:48:22.093Z,5.9
2018-11-01T06:53:24.539Z,6
2018-11-01T06:58:27.080Z,6.1
2018-11-01T07:03:29.428Z,6.1
2018-11-01T07:08:31.871Z,6.3
2018-11-01T07:13:34.308Z,6.5
2018-11-01T07:18:36.749Z,6.6
2018-11-01T07:23:39.397Z,6.7
2018-11-01T07:28:41.632Z,6.8
2018-11-01T07:38:46.503Z,7
2018-11-01T07:43:48.935Z,7.1
2018-11-01T07:48:51.373Z,7.2
2018-11-01T07:53:53.903Z,7.3
2018-11-01T07:58:56.275Z,7.3
2018-11-01T08:03:58.831Z,7.4
2018-11-01T08:09:01.135Z,7.6
2018-11-01T08:14:03.583Z,7.6
2018-11-01T08:19:06.018Z,7.6
2018-11-01T08:24:08.457Z,7.6
2018-11-01T08:29:10.904Z,7.8
2018-11-01T08:34:13.370Z,7.9
2018-11-01T08:39:15.932Z,8.1
2018-11-01T08:44:18.269Z,8.3
2018-11-01T08:49:20.701Z,8.4
2018-11-01T08:54:23.118Z,8.4
2018-11-01T08:59:25.551Z,8.4
2018-11-01T09:04:28.011Z,8.5
2018-11-01T09:09:30.483Z,8.6
2018-11-01T09:14:32.942Z,8.8
2018-11-01T09:19:35.371Z,8.9
2018-11-01T09:24:37.773Z,9.1
2018-11-01T09:29:40.241Z,9.2
2018-11-01T09:34:42.649Z,9.3
2018-11-01T09:39:45.081Z,9.3
2018-11-01T09:44:47.521Z,9.3
2018-11-01T09:49:49.963Z,9.3
2018-11-01T09:54:52.402Z,9.2
2018-11-01T09:59:54.882Z,9.2
2018-11-01T10:04:57.282Z,9.2
2018-11-01T10:09:59.743Z,9.1
2018-11-01T10:15:02.216Z,9.1
2018-11-01T10:20:04.611Z,9
2018-11-01T10:25:07.097Z,9
2018-11-01T10:30:09.483Z,9
2018-11-01T10:35:11.944Z,9
2018-11-01T10:40:14.382Z,9
2018-11-01T10:45:16.807Z,9
2018-11-01T10:50:19.260Z,8.9
2018-11-01T10:55:21.687Z,9
2018-11-01T11:00:24.268Z,9
2018-11-01T11:05:26.596Z,9.1
2018-11-01T11:10:29.014Z,9.1
2018-11-01T11:15:31.445Z,9
2018-11-01T11:20:34.261Z,9.1
2018-11-01T11:25:36.331Z,9
2018-11-01T11:30:38.973Z,9
2018-11-01T11:35:41.252Z,9
2018-11-01T11:40:43.674Z,9
2018-11-01T11:45:46.082Z,9
2018-11-01T11:50:48.544Z,9
2018-11-01T11:55:50.968Z,9.1
2018-11-01T12:00:53.431Z,9
2018-11-01T12:05:55.976Z,9
2018-11-01T12:10:58.290Z,9
2018-11-01T12:16:00.720Z,9
2018-11-01T12:21:03.185Z,9
2018-11-01T12:26:05.605Z,9
2018-11-01T12:31:08.060Z,9
2018-11-01T12:36:10.578Z,9.1
2018-11-01T12:41:12.925Z,9.1
2018-11-01T12:46:15.379Z,9.1
2018-11-01T12:51:17.805Z,9.1
2018-11-01T12:56:20.343Z,9.1
2018-11-01T13:01:22.700Z,9.1
2018-11-01T13:06:25.125Z,9.1
2018-11-01T13:11:27.588Z,9
2018-11-01T13:16:30.011Z,9
2018-11-01T13:21:32.501Z,9
2018-11-01T13:26:34.895Z,9
2018-11-01T13:31:37.338Z,9
2018-11-01T13:36:39.768Z,9
2018-11-01T13:41:42.299Z,9
2018-11-01T13:46:44.820Z,9
2018-11-01T13:51:47.192Z,9.1
2018-11-01T13:56:49.521Z,9.1
2018-11-01T14:01:51.984Z,9
2018-11-01T14:06:54.425Z,9
2018-11-01T14:11:56.879Z,9
2018-11-01T14:16:59.359Z,9
2018-11-01T14:22:01.758Z,9
2018-11-01T14:27:04.203Z,9
2018-11-01T14:32:06.627Z,9
2018-11-01T14:37:09.099Z,9
2018-11-01T14:42:11.549Z,9
2018-11-01T14:47:13.951Z,8.9
2018-11-01T14:52:17.008Z,8.9
2018-11-01T14:57:20.539Z,8.9
2018-11-01T15:02:21.269Z,8.8
2018-11-01T15:07:23.771Z,8.8
2018-11-01T15:12:26.144Z,8.8
2018-11-01T15:17:28.592Z,8.7
2018-11-01T15:22:31.046Z,8.7
2018-11-01T15:27:33.486Z,8.7
2018-11-01T15:37:38.487Z,8.7
2018-11-01T15:42:40.854Z,8.7
2018-11-01T15:47:43.233Z,8.7
2018-11-01T15:52:45.688Z,8.7
2018-11-01T15:57:48.137Z,8.7
2018-11-01T16:02:50.558Z,8.6
2018-11-01T16:07:52.998Z,8.6
2018-11-01T16:12:55.435Z,8.5
2018-11-01T16:17:57.873Z,8.4
2018-11-01T16:23:00.329Z,8.3
2018-11-01T16:28:02.791Z,8.3
2018-11-01T16:33:05.240Z,8.3
2018-11-01T16:38:07.698Z,8.3
2018-11-01T16:43:10.120Z,8.3
2018-11-01T16:48:12.541Z,8.3
2018-11-01T16:53:14.987Z,8.3
2018-11-01T16:58:17.433Z,8.3
2018-11-01T17:03:19.855Z,8.2
2018-11-01T17:08:22.364Z,8.2
2018-11-01T17:13:24.745Z,8.3
2018-11-01T17:18:27.182Z,8.4
2018-11-01T17:23:29.631Z,8.4
2018-11-01T17:28:32.068Z,8.6
2018-11-01T17:33:34.511Z,8.6
2018-11-01T17:38:36.951Z,8.6
2018-11-01T17:43:39.437Z,8.5
2018-11-01T17:48:41.830Z,8.5
2018-11-01T17:53:44.278Z,8.4
2018-11-01T17:58:46.706Z,8.3
2018-11-01T18:03:49.151Z,8.3
2018-11-01T18:08:51.732Z,8.3
2018-11-01T18:13:54.036Z,8.3
2018-11-01T18:18:56.466Z,8.6
2018-11-01T18:23:58.913Z,8.8
2018-11-01T18:29:01.577Z,8.9
2018-11-01T18:34:03.778Z,9
2018-11-01T18:39:06.341Z,9.1
2018-11-01T18:44:08.697Z,9
2018-11-01T18:49:11.108Z,9.1
2018-11-01T18:54:13.695Z,9.1
2018-11-01T18:59:15.996Z,9.1
2018-11-01T19:04:18.537Z,9
2018-11-01T19:09:20.892Z,9
2018-11-01T19:14:23.561Z,9
2018-11-01T19:19:25.855Z,9.2
2018-11-01T19:24:28.211Z,9.3
2018-11-01T19:29:30.634Z,9.4
2018-11-01T19:34:33.405Z,9.6
2018-11-01T19:39:35.535Z,9.6
2018-11-01T19:44:37.940Z,9.6
2018-11-01T19:49:40.555Z,9.6
2018-11-01T19:54:42.921Z,9.6
2018-11-01T19:59:45.296Z,9.5
2018-11-01T20:04:47.719Z,9.4
2018-11-01T20:09:50.170Z,9.3
2018-11-01T20:14:52.754Z,9.3
2018-11-01T20:19:55.034Z,9.2
2018-11-01T20:24:57.472Z,9.1
2018-11-01T20:29:59.913Z,9.1
2018-11-01T20:35:02.463Z,9
2018-11-01T20:40:04.797Z,8.8
2018-11-01T20:45:07.246Z,8.6
2018-11-01T20:50:09.702Z,8.4
2018-11-01T20:55:12.142Z,8.3
2018-11-01T21:00:14.573Z,8.4
2018-11-01T21:05:16.996Z,8.4
2018-11-01T21:10:19.443Z,8.5
2018-11-01T21:15:21.891Z,8.6
2018-11-01T21:20:24.310Z,8.4
2018-11-01T21:25:26.820Z,8.1
2018-11-01T21:30:29.235Z,7.8
2018-11-01T21:35:31.917Z,7.6
2018-11-01T21:40:34.187Z,7.4
2018-11-01T21:45:36.506Z,7.2
2018-11-01T21:50:38.941Z,7.1
2018-11-01T21:55:41.401Z,7
2018-11-01T22:00:43.824Z,7.1
2018-11-01T22:05:46.269Z,7.2
2018-11-01T22:10:48.720Z,7.5
2018-11-01T22:15:51.143Z,7.7
2018-11-01T22:20:53.624Z,7.9
2018-11-01T22:25:56.080Z,8.1
2018-11-01T22:30:58.503Z,8.2
2018-11-01T22:36:00.943Z,8.2
2018-11-01T22:41:03.369Z,8.2
2018-11-01T22:46:05.793Z,8.2
2018-11-01T22:51:08.253Z,8.2
2018-11-01T22:56:10.690Z,8.3
2018-11-01T23:01:13.153Z,8.3
2018-11-01T23:06:15.590Z,8.3
2018-11-01T23:11:18.020Z,8.3
2018-11-01T23:16:20.478Z,8.3
2018-11-01T23:21:22.874Z,8.3
2018-11-01T23:26:25.383Z,8.3
2018-11-01T23:31:27.854Z,8.3
2018-11-01T23:36:30.319Z,8.4
2018-11-01T23:41:32.685Z,8.5
2018-11-01T23:46:35.060Z,8.5
2018-11-01T23:51:37.577Z,8.5
2018-11-01T23:56:39.955Z,8.4
